Aeroporto :
LOGIN :

Iscrizione | Disclaimer

   EN    FR    IT 

 










Sommario :    VFR   VFR Marginale   IFR   IFR Intensivo   IFR Molto Intensivo
Visibilità : 
Base nubi : 
>= 8 km
>= 3000ft
5 / 8 km
1000 / 3000 ft
1500m / 5 km
500 / 1000 ft
800 / 1500m
200 / 500 ft
< 800m
< 200 ft
Simboli :   Temporali  Nebbia  Neve Forte  Precipitazioni Forti  Vento > 20 kt
SIGMETs :   Varie  Temporali  Ghiacco  Turbolenza  Onda orograficha  Ceneri Vulcaniche






- Altitudine del aeroporto : 646 ft
- Codice IATA : VNO


EYVI - Vilnius int.

ULTIMO METAR :
  • 040950Z 27011KT 240V300 9999 VCSH BKN045CB 07/M04 Q1020 NOSIG

METARs OBSOLETI :
  • 040920Z 29010KT 260V320 9999 VCSH SCT033CB BKN062 06/M04 Q1019 NOSIG
  • 040850Z 29011KT 9999 BKN027 05/M02 Q1019 NOSIG
  • 040820Z 27011KT 9999 BKN022 04/M02 Q1019 NOSIG
  • 040750Z 28012KT 250V310 9999 BKN019 04/M02 Q1019 NOSIG
  • 040720Z 28011KT 260V340 9999 BKN014 04/M01 Q1018 NOSIG

TAF TAF EYVI
Valido dal 04 a 06 ore il 05 a 06 ore UTC


040501Z 0406/0506 27014KT 9000 BKN030
TEMPO 0406/0409 BKN006
TEMPO 0409/0412 SCT008 BKN020CB
TEMPO 0412/0416 -SHRA SCT005 BKN015CB
TEMPO 0500/0506 3000 BR BKN005



MetMap, La meteo Aeronautica in un colpo d'occhio ! - Copyright ORBIFLY Dicembre 2007 - Disclaimer

ORBIFLY MET'MAP TEAM :

Programmazione e sviluppo : Alexandra Zaïnal
Concezione : Baudouin d'Aumeries
Aiuto per la programmazione : Marc-Olivier Méhu
Supporto tecnico e logistico : Manuel Goepfert
Aiuto per la traduzione : Arnaldo La Scala

Contatto : metmap@orbifly.com




FONTI E CREDITI :

   NOAA